sensor_id;sensor_type;location;lat;lon;timestamp;P1;durP1;ratioP1;P2;durP2;ratioP2
58768;SDS011;44536;47.474;19.056;2022-12-18T00:00:25;28.67;;;13.50;;
58768;SDS011;44536;47.474;19.056;2022-12-18T00:03:27;34.13;;;14.13;;
58768;SDS011;44536;47.474;19.056;2022-12-18T00:06:29;25.80;;;11.25;;
58768;SDS011;44536;47.474;19.056;2022-12-18T00:09:32;28.80;;;11.93;;
58768;SDS011;44536;47.474;19.056;2022-12-18T00:12:41;28.98;;;12.00;;
58768;SDS011;44536;47.474;19.056;2022-12-18T00:15:43;26.87;;;12.55;;
58768;SDS011;44536;47.474;19.056;2022-12-18T00:18:46;25.35;;;10.68;;
58768;SDS011;44536;47.474;19.056;2022-12-18T00:21:50;32.33;;;11.85;;
58768;SDS011;44536;47.474;19.056;2022-12-18T00:24:52;27.67;;;13.32;;
58768;SDS011;44536;47.474;19.056;2022-12-18T00:27:55;23.23;;;10.55;;
58768;SDS011;44536;47.474;19.056;2022-12-18T00:34:04;31.30;;;11.88;;
58768;SDS011;44536;47.474;19.056;2022-12-18T00:37:06;26.12;;;12.02;;
58768;SDS011;44536;47.474;19.056;2022-12-18T00:40:09;27.57;;;10.37;;
58768;SDS011;44536;47.474;19.056;2022-12-18T00:43:12;26.90;;;11.25;;
58768;SDS011;44536;47.474;19.056;2022-12-18T00:46:14;26.77;;;12.75;;
58768;SDS011;44536;47.474;19.056;2022-12-18T00:49:17;28.25;;;12.07;;
58768;SDS011;44536;47.474;19.056;2022-12-18T00:52:21;27.80;;;14.48;;
58768;SDS011;44536;47.474;19.056;2022-12-18T00:55:23;28.62;;;12.63;;
58768;SDS011;44536;47.474;19.056;2022-12-18T00:58:26;22.35;;;10.30;;
58768;SDS011;44536;47.474;19.056;2022-12-18T01:01:28;23.80;;;11.60;;
58768;SDS011;44536;47.474;19.056;2022-12-18T01:04:31;30.62;;;10.52;;
58768;SDS011;44536;47.474;19.056;2022-12-18T01:07:34;22.83;;;10.48;;
58768;SDS011;44536;47.474;19.056;2022-12-18T01:10:39;28.75;;;11.65;;
58768;SDS011;44536;47.474;19.056;2022-12-18T01:13:43;33.17;;;11.95;;
58768;SDS011;44536;47.474;19.056;2022-12-18T01:16:46;21.77;;;9.32;;
58768;SDS011;44536;47.474;19.056;2022-12-18T01:19:48;22.27;;;10.75;;
58768;SDS011;44536;47.474;19.056;2022-12-18T01:22:50;27.13;;;12.40;;
58768;SDS011;44536;47.474;19.056;2022-12-18T01:25:53;25.60;;;9.80;;
58768;SDS011;44536;47.474;19.056;2022-12-18T01:28:55;32.20;;;11.00;;
58768;SDS011;44536;47.474;19.056;2022-12-18T01:31:58;26.05;;;11.27;;
58768;SDS011;44536;47.474;19.056;2022-12-18T01:35:01;28.63;;;14.27;;
58768;SDS011;44536;47.474;19.056;2022-12-18T01:38:03;26.75;;;12.93;;
58768;SDS011;44536;47.474;19.056;2022-12-18T01:41:05;19.02;;;9.52;;
58768;SDS011;44536;47.474;19.056;2022-12-18T01:47:50;28.45;;;10.73;;
58768;SDS011;44536;47.474;19.056;2022-12-18T01:50:56;21.10;;;9.93;;
58768;SDS011;44536;47.474;19.056;2022-12-18T01:53:59;24.37;;;11.07;;
58768;SDS011;44536;47.474;19.056;2022-12-18T01:57:01;24.97;;;11.17;;
58768;SDS011;44536;47.474;19.056;2022-12-18T02:00:06;26.55;;;10.55;;
58768;SDS011;44536;47.474;19.056;2022-12-18T02:03:13;23.38;;;9.90;;
58768;SDS011;44536;47.474;19.056;2022-12-18T02:06:26;23.25;;;10.18;;
58768;SDS011;44536;47.474;19.056;2022-12-18T02:09:35;26.42;;;11.38;;
58768;SDS011;44536;47.474;19.056;2022-12-18T02:12:57;30.63;;;12.47;;
58768;SDS011;44536;47.474;19.056;2022-12-18T02:26:18;23.23;;;9.07;;
58768;SDS011;44536;47.474;19.056;2022-12-18T02:29:29;23.25;;;11.52;;
58768;SDS011;44536;47.474;19.056;2022-12-18T02:32:59;27.23;;;10.90;;
58768;SDS011;44536;47.474;19.056;2022-12-18T02:36:04;29.05;;;11.32;;
58768;SDS011;44536;47.474;19.056;2022-12-18T02:39:09;31.73;;;14.65;;
58768;SDS011;44536;47.474;19.056;2022-12-18T02:42:14;29.30;;;10.73;;
58768;SDS011;44536;47.474;19.056;2022-12-18T02:45:18;32.10;;;12.35;;
58768;SDS011;44536;47.474;19.056;2022-12-18T02:48:24;23.30;;;10.13;;
58768;SDS011;44536;47.474;19.056;2022-12-18T02:51:32;25.27;;;11.18;;
58768;SDS011;44536;47.474;19.056;2022-12-18T02:54:51;22.33;;;10.15;;
58768;SDS011;44536;47.474;19.056;2022-12-18T03:04:53;32.72;;;14.32;;
58768;SDS011;44536;47.474;19.056;2022-12-18T03:11:14;24.90;;;11.85;;
58768;SDS011;44536;47.474;19.056;2022-12-18T03:14:17;24.67;;;10.75;;
58768;SDS011;44536;47.474;19.056;2022-12-18T03:17:24;26.60;;;10.27;;
58768;SDS011;44536;47.474;19.056;2022-12-18T03:20:29;28.55;;;12.52;;
58768;SDS011;44536;47.474;19.056;2022-12-18T03:23:37;22.92;;;11.90;;
58768;SDS011;44536;47.474;19.056;2022-12-18T03:26:47;22.65;;;12.02;;
58768;SDS011;44536;47.474;19.056;2022-12-18T03:30:04;25.33;;;12.50;;
58768;SDS011;44536;47.474;19.056;2022-12-18T03:36:29;23.87;;;10.77;;
58768;SDS011;44536;47.474;19.056;2022-12-18T03:39:34;26.40;;;10.75;;
58768;SDS011;44536;47.474;19.056;2022-12-18T03:42:49;26.20;;;11.23;;
58768;SDS011;44536;47.474;19.056;2022-12-18T03:46:02;27.48;;;11.77;;
58768;SDS011;44536;47.474;19.056;2022-12-18T03:52:38;34.03;;;13.23;;
58768;SDS011;44536;47.474;19.056;2022-12-18T03:55:47;36.40;;;14.40;;
58768;SDS011;44536;47.474;19.056;2022-12-18T03:58:52;22.55;;;11.02;;
58768;SDS011;44536;47.474;19.056;2022-12-18T04:01:56;25.85;;;13.02;;
58768;SDS011;44536;47.474;19.056;2022-12-18T04:05:03;23.52;;;11.50;;
58768;SDS011;44536;47.474;19.056;2022-12-18T04:08:08;37.38;;;12.63;;
58768;SDS011;44536;47.474;19.056;2022-12-18T04:11:11;26.80;;;13.30;;
58768;SDS011;44536;47.474;19.056;2022-12-18T04:14:14;29.45;;;14.43;;
58768;SDS011;44536;47.474;19.056;2022-12-18T04:17:21;30.15;;;12.82;;
58768;SDS011;44536;47.474;19.056;2022-12-18T04:23:27;22.87;;;10.47;;
58768;SDS011;44536;47.474;19.056;2022-12-18T04:26:30;31.98;;;11.65;;
58768;SDS011;44536;47.474;19.056;2022-12-18T04:29:34;24.25;;;11.02;;
58768;SDS011;44536;47.474;19.056;2022-12-18T04:32:36;28.70;;;11.85;;
58768;SDS011;44536;47.474;19.056;2022-12-18T04:35:39;32.88;;;12.30;;
58768;SDS011;44536;47.474;19.056;2022-12-18T04:38:43;37.55;;;14.52;;
58768;SDS011;44536;47.474;19.056;2022-12-18T04:41:46;31.83;;;11.88;;
58768;SDS011;44536;47.474;19.056;2022-12-18T04:44:48;26.08;;;13.40;;
58768;SDS011;44536;47.474;19.056;2022-12-18T04:47:51;34.35;;;14.32;;
58768;SDS011;44536;47.474;19.056;2022-12-18T04:50:53;34.90;;;12.98;;
58768;SDS011;44536;47.474;19.056;2022-12-18T04:53:55;24.27;;;10.73;;
58768;SDS011;44536;47.474;19.056;2022-12-18T04:56:57;29.23;;;11.95;;
58768;SDS011;44536;47.474;19.056;2022-12-18T05:00:00;22.10;;;13.20;;
58768;SDS011;44536;47.474;19.056;2022-12-18T05:03:03;26.42;;;13.35;;
58768;SDS011;44536;47.474;19.056;2022-12-18T05:06:06;29.65;;;12.90;;
58768;SDS011;44536;47.474;19.056;2022-12-18T05:09:09;34.42;;;14.45;;
58768;SDS011;44536;47.474;19.056;2022-12-18T05:12:11;25.50;;;11.02;;
58768;SDS011;44536;47.474;19.056;2022-12-18T05:15:13;33.78;;;13.57;;
58768;SDS011;44536;47.474;19.056;2022-12-18T05:18:16;30.02;;;14.93;;
58768;SDS011;44536;47.474;19.056;2022-12-18T05:21:18;31.30;;;12.57;;
58768;SDS011;44536;47.474;19.056;2022-12-18T05:24:20;29.05;;;11.82;;
58768;SDS011;44536;47.474;19.056;2022-12-18T05:27:22;24.37;;;11.10;;
58768;SDS011;44536;47.474;19.056;2022-12-18T05:30:25;34.30;;;12.45;;
58768;SDS011;44536;47.474;19.056;2022-12-18T05:33:29;26.20;;;12.93;;
58768;SDS011;44536;47.474;19.056;2022-12-18T05:36:33;24.50;;;10.35;;
58768;SDS011;44536;47.474;19.056;2022-12-18T05:39:35;24.63;;;11.12;;
58768;SDS011;44536;47.474;19.056;2022-12-18T05:42:37;27.73;;;13.02;;
58768;SDS011;44536;47.474;19.056;2022-12-18T05:45:40;30.52;;;14.23;;
58768;SDS011;44536;47.474;19.056;2022-12-18T05:48:43;24.73;;;12.32;;
58768;SDS011;44536;47.474;19.056;2022-12-18T05:51:46;36.50;;;15.25;;
58768;SDS011;44536;47.474;19.056;2022-12-18T05:54:49;28.20;;;11.83;;
58768;SDS011;44536;47.474;19.056;2022-12-18T05:57:51;29.63;;;12.05;;
58768;SDS011;44536;47.474;19.056;2022-12-18T06:00:53;26.07;;;12.70;;
58768;SDS011;44536;47.474;19.056;2022-12-18T06:03:56;36.30;;;12.63;;
58768;SDS011;44536;47.474;19.056;2022-12-18T06:06:58;30.55;;;13.70;;
58768;SDS011;44536;47.474;19.056;2022-12-18T06:10:01;32.60;;;10.88;;
58768;SDS011;44536;47.474;19.056;2022-12-18T06:13:03;26.25;;;11.50;;
58768;SDS011;44536;47.474;19.056;2022-12-18T06:16:06;35.75;;;15.57;;
58768;SDS011;44536;47.474;19.056;2022-12-18T06:19:13;27.05;;;12.60;;
58768;SDS011;44536;47.474;19.056;2022-12-18T06:22:17;30.27;;;12.15;;
58768;SDS011;44536;47.474;19.056;2022-12-18T06:25:20;35.55;;;12.57;;
58768;SDS011;44536;47.474;19.056;2022-12-18T06:28:22;33.50;;;13.77;;
58768;SDS011;44536;47.474;19.056;2022-12-18T06:31:24;26.25;;;12.27;;
58768;SDS011;44536;47.474;19.056;2022-12-18T06:34:27;29.45;;;11.93;;
58768;SDS011;44536;47.474;19.056;2022-12-18T06:37:32;32.97;;;14.15;;
58768;SDS011;44536;47.474;19.056;2022-12-18T06:40:36;25.75;;;10.73;;
58768;SDS011;44536;47.474;19.056;2022-12-18T06:43:40;31.52;;;12.32;;
58768;SDS011;44536;47.474;19.056;2022-12-18T06:46:44;27.67;;;13.32;;
58768;SDS011;44536;47.474;19.056;2022-12-18T06:49:46;30.25;;;10.77;;
58768;SDS011;44536;47.474;19.056;2022-12-18T06:52:48;34.88;;;13.27;;
58768;SDS011;44536;47.474;19.056;2022-12-18T06:55:50;28.33;;;12.05;;
58768;SDS011;44536;47.474;19.056;2022-12-18T06:58:53;40.97;;;13.73;;
58768;SDS011;44536;47.474;19.056;2022-12-18T07:01:55;29.55;;;12.70;;
58768;SDS011;44536;47.474;19.056;2022-12-18T07:04:58;34.05;;;13.85;;
58768;SDS011;44536;47.474;19.056;2022-12-18T07:08:00;25.02;;;12.40;;
58768;SDS011;44536;47.474;19.056;2022-12-18T07:11:03;32.50;;;14.00;;
58768;SDS011;44536;47.474;19.056;2022-12-18T07:14:06;29.02;;;13.10;;
58768;SDS011;44536;47.474;19.056;2022-12-18T07:17:09;31.62;;;12.25;;
58768;SDS011;44536;47.474;19.056;2022-12-18T07:20:11;28.65;;;13.05;;
58768;SDS011;44536;47.474;19.056;2022-12-18T07:23:13;25.75;;;9.93;;
58768;SDS011;44536;47.474;19.056;2022-12-18T07:26:17;31.08;;;14.90;;
58768;SDS011;44536;47.474;19.056;2022-12-18T07:29:21;24.95;;;14.25;;
58768;SDS011;44536;47.474;19.056;2022-12-18T07:32:23;26.98;;;13.43;;
58768;SDS011;44536;47.474;19.056;2022-12-18T07:35:26;32.05;;;15.95;;
58768;SDS011;44536;47.474;19.056;2022-12-18T07:38:28;31.77;;;16.05;;
58768;SDS011;44536;47.474;19.056;2022-12-18T07:41:32;28.58;;;11.07;;
58768;SDS011;44536;47.474;19.056;2022-12-18T07:44:39;33.20;;;11.50;;
58768;SDS011;44536;47.474;19.056;2022-12-18T07:47:41;25.98;;;13.57;;
58768;SDS011;44536;47.474;19.056;2022-12-18T07:50:43;28.38;;;11.95;;
58768;SDS011;44536;47.474;19.056;2022-12-18T07:53:46;29.15;;;13.10;;
58768;SDS011;44536;47.474;19.056;2022-12-18T07:56:53;22.00;;;10.73;;
58768;SDS011;44536;47.474;19.056;2022-12-18T07:59:55;30.45;;;14.25;;
58768;SDS011;44536;47.474;19.056;2022-12-18T08:02:57;37.00;;;12.90;;
58768;SDS011;44536;47.474;19.056;2022-12-18T08:06:04;33.78;;;14.87;;
58768;SDS011;44536;47.474;19.056;2022-12-18T08:09:09;30.70;;;15.40;;
58768;SDS011;44536;47.474;19.056;2022-12-18T08:12:12;34.38;;;14.77;;
58768;SDS011;44536;47.474;19.056;2022-12-18T08:15:14;28.25;;;15.02;;
58768;SDS011;44536;47.474;19.056;2022-12-18T08:18:16;40.80;;;13.93;;
58768;SDS011;44536;47.474;19.056;2022-12-18T08:21:20;27.33;;;13.80;;
58768;SDS011;44536;47.474;19.056;2022-12-18T08:24:25;30.90;;;16.37;;
58768;SDS011;44536;47.474;19.056;2022-12-18T08:27:27;34.90;;;13.55;;
58768;SDS011;44536;47.474;19.056;2022-12-18T08:30:31;29.15;;;14.70;;
58768;SDS011;44536;47.474;19.056;2022-12-18T08:33:34;27.45;;;12.30;;
58768;SDS011;44536;47.474;19.056;2022-12-18T08:36:37;32.35;;;14.75;;
58768;SDS011;44536;47.474;19.056;2022-12-18T08:39:39;29.77;;;14.10;;
58768;SDS011;44536;47.474;19.056;2022-12-18T08:42:42;28.73;;;14.07;;
58768;SDS011;44536;47.474;19.056;2022-12-18T08:46:02;27.05;;;13.43;;
58768;SDS011;44536;47.474;19.056;2022-12-18T08:49:05;37.50;;;14.97;;
58768;SDS011;44536;47.474;19.056;2022-12-18T08:55:11;32.35;;;13.90;;
58768;SDS011;44536;47.474;19.056;2022-12-18T08:58:13;30.42;;;15.73;;
58768;SDS011;44536;47.474;19.056;2022-12-18T09:01:15;33.83;;;14.20;;
58768;SDS011;44536;47.474;19.056;2022-12-18T09:04:18;33.10;;;13.62;;
58768;SDS011;44536;47.474;19.056;2022-12-18T09:07:20;40.90;;;16.98;;
58768;SDS011;44536;47.474;19.056;2022-12-18T09:10:22;36.35;;;16.00;;
58768;SDS011;44536;47.474;19.056;2022-12-18T09:13:25;28.60;;;13.38;;
58768;SDS011;44536;47.474;19.056;2022-12-18T09:16:28;33.03;;;16.95;;
58768;SDS011;44536;47.474;19.056;2022-12-18T09:19:33;31.08;;;15.98;;
58768;SDS011;44536;47.474;19.056;2022-12-18T09:22:36;35.75;;;16.58;;
58768;SDS011;44536;47.474;19.056;2022-12-18T09:25:38;35.05;;;16.55;;
58768;SDS011;44536;47.474;19.056;2022-12-18T09:28:41;27.37;;;13.65;;
58768;SDS011;44536;47.474;19.056;2022-12-18T09:31:45;33.33;;;16.48;;
58768;SDS011;44536;47.474;19.056;2022-12-18T09:34:47;34.45;;;19.02;;
58768;SDS011;44536;47.474;19.056;2022-12-18T09:37:49;34.40;;;17.48;;
58768;SDS011;44536;47.474;19.056;2022-12-18T09:40:52;32.97;;;17.70;;
58768;SDS011;44536;47.474;19.056;2022-12-18T09:44:00;27.50;;;16.17;;
58768;SDS011;44536;47.474;19.056;2022-12-18T09:47:09;30.70;;;18.58;;
58768;SDS011;44536;47.474;19.056;2022-12-18T09:50:29;35.65;;;17.35;;
58768;SDS011;44536;47.474;19.056;2022-12-18T09:53:35;35.15;;;16.23;;
58768;SDS011;44536;47.474;19.056;2022-12-18T09:56:43;32.65;;;19.37;;
58768;SDS011;44536;47.474;19.056;2022-12-18T09:59:47;34.47;;;17.70;;
58768;SDS011;44536;47.474;19.056;2022-12-18T10:02:58;34.78;;;17.35;;
58768;SDS011;44536;47.474;19.056;2022-12-18T10:09:12;27.73;;;14.73;;
58768;SDS011;44536;47.474;19.056;2022-12-18T10:12:30;36.47;;;15.23;;
58768;SDS011;44536;47.474;19.056;2022-12-18T10:19:20;32.67;;;14.73;;
58768;SDS011;44536;47.474;19.056;2022-12-18T10:25:51;35.53;;;14.98;;
58768;SDS011;44536;47.474;19.056;2022-12-18T10:29:03;27.62;;;14.48;;
58768;SDS011;44536;47.474;19.056;2022-12-18T10:32:14;33.03;;;15.75;;
58768;SDS011;44536;47.474;19.056;2022-12-18T10:35:23;33.58;;;18.00;;
58768;SDS011;44536;47.474;19.056;2022-12-18T10:38:28;35.47;;;16.35;;
58768;SDS011;44536;47.474;19.056;2022-12-18T10:41:33;36.42;;;17.15;;
58768;SDS011;44536;47.474;19.056;2022-12-18T10:44:35;28.17;;;15.93;;
58768;SDS011;44536;47.474;19.056;2022-12-18T10:47:55;35.08;;;16.00;;
58768;SDS011;44536;47.474;19.056;2022-12-18T10:50:58;37.50;;;15.25;;
58768;SDS011;44536;47.474;19.056;2022-12-18T11:00:29;33.42;;;17.08;;
58768;SDS011;44536;47.474;19.056;2022-12-18T11:03:43;36.22;;;15.27;;
58768;SDS011;44536;47.474;19.056;2022-12-18T11:07:20;39.35;;;18.73;;
58768;SDS011;44536;47.474;19.056;2022-12-18T11:10:18;31.15;;;16.20;;
58768;SDS011;44536;47.474;19.056;2022-12-18T11:13:23;36.20;;;14.25;;
58768;SDS011;44536;47.474;19.056;2022-12-18T11:16:28;35.58;;;17.92;;
58768;SDS011;44536;47.474;19.056;2022-12-18T11:19:36;28.75;;;14.60;;
58768;SDS011;44536;47.474;19.056;2022-12-18T11:22:41;27.02;;;14.35;;
58768;SDS011;44536;47.474;19.056;2022-12-18T11:25:50;33.35;;;16.25;;
58768;SDS011;44536;47.474;19.056;2022-12-18T11:29:08;28.30;;;17.00;;
58768;SDS011;44536;47.474;19.056;2022-12-18T11:38:41;35.33;;;18.20;;
58768;SDS011;44536;47.474;19.056;2022-12-18T11:51:35;26.30;;;14.98;;
58768;SDS011;44536;47.474;19.056;2022-12-18T11:54:45;33.00;;;17.35;;
58768;SDS011;44536;47.474;19.056;2022-12-18T11:57:53;25.70;;;15.45;;
58768;SDS011;44536;47.474;19.056;2022-12-18T12:01:19;30.05;;;14.65;;
58768;SDS011;44536;47.474;19.056;2022-12-18T12:07:53;27.62;;;16.73;;
58768;SDS011;44536;47.474;19.056;2022-12-18T12:14:42;29.90;;;15.57;;
58768;SDS011;44536;47.474;19.056;2022-12-18T12:22:08;31.70;;;15.73;;
58768;SDS011;44536;47.474;19.056;2022-12-18T12:28:53;27.60;;;16.58;;
58768;SDS011;44536;47.474;19.056;2022-12-18T12:38:45;31.37;;;14.55;;
58768;SDS011;44536;47.474;19.056;2022-12-18T12:41:53;25.35;;;15.30;;
58768;SDS011;44536;47.474;19.056;2022-12-18T12:45:18;29.77;;;15.07;;
58768;SDS011;44536;47.474;19.056;2022-12-18T12:48:33;34.35;;;17.90;;
58768;SDS011;44536;47.474;19.056;2022-12-18T12:51:41;32.13;;;18.30;;
58768;SDS011;44536;47.474;19.056;2022-12-18T12:54:48;33.65;;;17.48;;
58768;SDS011;44536;47.474;19.056;2022-12-18T12:57:57;36.70;;;18.08;;
58768;SDS011;44536;47.474;19.056;2022-12-18T13:10:42;35.00;;;16.25;;
58768;SDS011;44536;47.474;19.056;2022-12-18T13:13:48;36.92;;;17.42;;
58768;SDS011;44536;47.474;19.056;2022-12-18T13:16:52;36.15;;;16.83;;
58768;SDS011;44536;47.474;19.056;2022-12-18T13:20:17;37.58;;;16.62;;
58768;SDS011;44536;47.474;19.056;2022-12-18T13:29:45;36.22;;;20.08;;
58768;SDS011;44536;47.474;19.056;2022-12-18T13:32:48;43.60;;;20.60;;
58768;SDS011;44536;47.474;19.056;2022-12-18T13:39:33;47.83;;;24.55;;
58768;SDS011;44536;47.474;19.056;2022-12-18T13:42:56;37.97;;;19.60;;
58768;SDS011;44536;47.474;19.056;2022-12-18T13:49:28;44.03;;;22.33;;
58768;SDS011;44536;47.474;19.056;2022-12-18T13:52:41;39.53;;;21.20;;
58768;SDS011;44536;47.474;19.056;2022-12-18T13:55:45;41.60;;;21.08;;
58768;SDS011;44536;47.474;19.056;2022-12-18T13:59:10;41.90;;;20.37;;
58768;SDS011;44536;47.474;19.056;2022-12-18T14:02:27;44.72;;;18.90;;
58768;SDS011;44536;47.474;19.056;2022-12-18T14:05:32;40.22;;;19.92;;
58768;SDS011;44536;47.474;19.056;2022-12-18T14:08:40;35.05;;;19.02;;
58768;SDS011;44536;47.474;19.056;2022-12-18T14:11:47;41.90;;;20.77;;
58768;SDS011;44536;47.474;19.056;2022-12-18T14:14:52;44.22;;;20.25;;
58768;SDS011;44536;47.474;19.056;2022-12-18T14:21:27;39.17;;;17.80;;
58768;SDS011;44536;47.474;19.056;2022-12-18T14:24:31;41.13;;;17.98;;
58768;SDS011;44536;47.474;19.056;2022-12-18T14:27:36;37.23;;;20.27;;
58768;SDS011;44536;47.474;19.056;2022-12-18T14:30:43;45.65;;;19.27;;
58768;SDS011;44536;47.474;19.056;2022-12-18T14:33:47;42.40;;;20.30;;
58768;SDS011;44536;47.474;19.056;2022-12-18T14:36:53;38.53;;;20.37;;
58768;SDS011;44536;47.474;19.056;2022-12-18T14:40:01;33.25;;;18.48;;
58768;SDS011;44536;47.474;19.056;2022-12-18T14:43:12;35.47;;;17.02;;
58768;SDS011;44536;47.474;19.056;2022-12-18T14:46:28;39.63;;;18.33;;
58768;SDS011;44536;47.474;19.056;2022-12-18T14:49:35;47.65;;;20.50;;
58768;SDS011;44536;47.474;19.056;2022-12-18T14:55:43;37.13;;;18.62;;
58768;SDS011;44536;47.474;19.056;2022-12-18T15:02:04;42.60;;;22.27;;
58768;SDS011;44536;47.474;19.056;2022-12-18T15:05:36;41.45;;;21.60;;
58768;SDS011;44536;47.474;19.056;2022-12-18T15:08:38;35.22;;;19.37;;
58768;SDS011;44536;47.474;19.056;2022-12-18T15:14:43;33.55;;;19.40;;
58768;SDS011;44536;47.474;19.056;2022-12-18T15:17:45;43.15;;;20.62;;
58768;SDS011;44536;47.474;19.056;2022-12-18T15:20:58;46.15;;;24.15;;
58768;SDS011;44536;47.474;19.056;2022-12-18T15:24:15;43.55;;;18.58;;
58768;SDS011;44536;47.474;19.056;2022-12-18T15:27:31;40.72;;;19.70;;
58768;SDS011;44536;47.474;19.056;2022-12-18T15:30:37;42.42;;;18.83;;
58768;SDS011;44536;47.474;19.056;2022-12-18T15:34:23;36.83;;;19.00;;
58768;SDS011;44536;47.474;19.056;2022-12-18T15:37:16;41.35;;;20.17;;
58768;SDS011;44536;47.474;19.056;2022-12-18T15:40:22;41.72;;;20.40;;
58768;SDS011;44536;47.474;19.056;2022-12-18T15:43:27;34.25;;;17.20;;
58768;SDS011;44536;47.474;19.056;2022-12-18T15:46:36;43.60;;;19.00;;
58768;SDS011;44536;47.474;19.056;2022-12-18T15:49:39;43.93;;;20.97;;
58768;SDS011;44536;47.474;19.056;2022-12-18T15:52:43;46.78;;;21.80;;
58768;SDS011;44536;47.474;19.056;2022-12-18T15:55:46;34.03;;;18.55;;
58768;SDS011;44536;47.474;19.056;2022-12-18T15:59:12;40.35;;;18.42;;
58768;SDS011;44536;47.474;19.056;2022-12-18T16:02:17;36.97;;;20.15;;
58768;SDS011;44536;47.474;19.056;2022-12-18T16:05:20;56.60;;;25.70;;
58768;SDS011;44536;47.474;19.056;2022-12-18T16:08:24;43.20;;;20.92;;
58768;SDS011;44536;47.474;19.056;2022-12-18T16:11:27;45.15;;;22.08;;
58768;SDS011;44536;47.474;19.056;2022-12-18T16:14:40;39.65;;;20.42;;
58768;SDS011;44536;47.474;19.056;2022-12-18T16:17:43;41.60;;;19.95;;
58768;SDS011;44536;47.474;19.056;2022-12-18T16:20:48;49.53;;;20.77;;
58768;SDS011;44536;47.474;19.056;2022-12-18T16:23:50;42.03;;;22.42;;
58768;SDS011;44536;47.474;19.056;2022-12-18T16:26:53;48.45;;;23.17;;
58768;SDS011;44536;47.474;19.056;2022-12-18T16:29:56;45.35;;;21.75;;
58768;SDS011;44536;47.474;19.056;2022-12-18T16:32:58;46.90;;;23.83;;
58768;SDS011;44536;47.474;19.056;2022-12-18T16:36:01;47.45;;;22.90;;
58768;SDS011;44536;47.474;19.056;2022-12-18T16:39:04;42.95;;;21.02;;
58768;SDS011;44536;47.474;19.056;2022-12-18T16:42:13;42.25;;;22.30;;
58768;SDS011;44536;47.474;19.056;2022-12-18T16:45:18;48.95;;;23.35;;
58768;SDS011;44536;47.474;19.056;2022-12-18T16:48:21;47.83;;;22.73;;
58768;SDS011;44536;47.474;19.056;2022-12-18T16:51:23;43.75;;;19.17;;
58768;SDS011;44536;47.474;19.056;2022-12-18T16:54:26;38.97;;;20.77;;
58768;SDS011;44536;47.474;19.056;2022-12-18T16:57:31;44.70;;;24.65;;
58768;SDS011;44536;47.474;19.056;2022-12-18T17:00:33;50.28;;;26.12;;
58768;SDS011;44536;47.474;19.056;2022-12-18T17:03:35;43.42;;;21.35;;
58768;SDS011;44536;47.474;19.056;2022-12-18T17:06:40;48.30;;;23.45;;
58768;SDS011;44536;47.474;19.056;2022-12-18T17:09:44;48.15;;;23.58;;
58768;SDS011;44536;47.474;19.056;2022-12-18T17:12:47;41.47;;;21.25;;
58768;SDS011;44536;47.474;19.056;2022-12-18T17:15:51;50.22;;;22.52;;
58768;SDS011;44536;47.474;19.056;2022-12-18T17:18:54;40.80;;;21.92;;
58768;SDS011;44536;47.474;19.056;2022-12-18T17:21:57;45.35;;;21.17;;
58768;SDS011;44536;47.474;19.056;2022-12-18T17:24:59;43.42;;;22.90;;
58768;SDS011;44536;47.474;19.056;2022-12-18T17:28:01;40.80;;;21.00;;
58768;SDS011;44536;47.474;19.056;2022-12-18T17:31:11;42.50;;;20.45;;
58768;SDS011;44536;47.474;19.056;2022-12-18T17:34:15;53.58;;;24.70;;
58768;SDS011;44536;47.474;19.056;2022-12-18T17:37:17;47.67;;;24.05;;
58768;SDS011;44536;47.474;19.056;2022-12-18T17:40:19;48.45;;;21.90;;
58768;SDS011;44536;47.474;19.056;2022-12-18T17:43:22;49.58;;;24.17;;
58768;SDS011;44536;47.474;19.056;2022-12-18T17:46:24;48.92;;;25.33;;
58768;SDS011;44536;47.474;19.056;2022-12-18T17:49:28;48.00;;;25.92;;
58768;SDS011;44536;47.474;19.056;2022-12-18T17:52:30;46.10;;;24.98;;
58768;SDS011;44536;47.474;19.056;2022-12-18T17:55:33;41.33;;;23.27;;
58768;SDS011;44536;47.474;19.056;2022-12-18T17:58:35;51.33;;;25.65;;
58768;SDS011;44536;47.474;19.056;2022-12-18T18:01:39;53.83;;;24.60;;
58768;SDS011;44536;47.474;19.056;2022-12-18T18:04:46;49.55;;;23.48;;
58768;SDS011;44536;47.474;19.056;2022-12-18T18:07:48;46.63;;;26.70;;
58768;SDS011;44536;47.474;19.056;2022-12-18T18:10:53;50.67;;;26.25;;
58768;SDS011;44536;47.474;19.056;2022-12-18T18:13:56;50.58;;;25.12;;
58768;SDS011;44536;47.474;19.056;2022-12-18T18:17:02;54.92;;;29.08;;
58768;SDS011;44536;47.474;19.056;2022-12-18T18:20:06;52.15;;;24.90;;
58768;SDS011;44536;47.474;19.056;2022-12-18T18:23:08;49.78;;;23.75;;
58768;SDS011;44536;47.474;19.056;2022-12-18T18:26:11;57.62;;;27.25;;
58768;SDS011;44536;47.474;19.056;2022-12-18T18:29:14;52.83;;;27.07;;
58768;SDS011;44536;47.474;19.056;2022-12-18T18:32:19;53.65;;;27.02;;
58768;SDS011;44536;47.474;19.056;2022-12-18T18:35:22;60.75;;;29.10;;
58768;SDS011;44536;47.474;19.056;2022-12-18T18:38:44;50.05;;;27.25;;
58768;SDS011;44536;47.474;19.056;2022-12-18T18:41:49;45.12;;;26.65;;
58768;SDS011;44536;47.474;19.056;2022-12-18T18:44:52;51.45;;;25.33;;
58768;SDS011;44536;47.474;19.056;2022-12-18T18:47:54;54.92;;;29.92;;
58768;SDS011;44536;47.474;19.056;2022-12-18T18:50:57;51.72;;;27.30;;
58768;SDS011;44536;47.474;19.056;2022-12-18T18:54:01;63.72;;;27.90;;
58768;SDS011;44536;47.474;19.056;2022-12-18T18:57:03;53.60;;;25.40;;
58768;SDS011;44536;47.474;19.056;2022-12-18T19:00:22;47.40;;;26.67;;
58768;SDS011;44536;47.474;19.056;2022-12-18T19:03:24;54.95;;;26.98;;
58768;SDS011;44536;47.474;19.056;2022-12-18T19:06:28;53.00;;;27.33;;
58768;SDS011;44536;47.474;19.056;2022-12-18T19:09:32;53.80;;;26.70;;
58768;SDS011;44536;47.474;19.056;2022-12-18T19:12:34;52.92;;;28.73;;
58768;SDS011;44536;47.474;19.056;2022-12-18T19:16:05;63.05;;;25.83;;
58768;SDS011;44536;47.474;19.056;2022-12-18T19:19:11;58.90;;;30.05;;
58768;SDS011;44536;47.474;19.056;2022-12-18T19:22:14;57.05;;;26.60;;
58768;SDS011;44536;47.474;19.056;2022-12-18T19:25:17;45.95;;;28.20;;
58768;SDS011;44536;47.474;19.056;2022-12-18T19:28:20;55.30;;;30.65;;
58768;SDS011;44536;47.474;19.056;2022-12-18T19:31:27;52.33;;;26.17;;
58768;SDS011;44536;47.474;19.056;2022-12-18T19:34:36;50.67;;;27.73;;
58768;SDS011;44536;47.474;19.056;2022-12-18T19:37:39;57.88;;;25.12;;
58768;SDS011;44536;47.474;19.056;2022-12-18T19:40:42;44.47;;;23.23;;
58768;SDS011;44536;47.474;19.056;2022-12-18T19:43:45;59.50;;;26.87;;
58768;SDS011;44536;47.474;19.056;2022-12-18T19:46:48;54.30;;;24.83;;
58768;SDS011;44536;47.474;19.056;2022-12-18T19:49:52;45.15;;;23.62;;
58768;SDS011;44536;47.474;19.056;2022-12-18T19:52:54;40.45;;;23.83;;
58768;SDS011;44536;47.474;19.056;2022-12-18T19:55:57;55.67;;;26.70;;
58768;SDS011;44536;47.474;19.056;2022-12-18T19:58:59;53.55;;;25.65;;